Time;durP1;ratioP1;P1;durP2;ratioP2;P2;SDS_P1;SDS_P2;PMS_P1;PMS_P2;Temp;Humidity;BMP_temperature;BMP_pressure;BME280_temperature;BME280_humidity;BME280_pressure;Samples;Min_cycle;Max_cycle;Signal;HPM_P1;HPM_P2
2023/10/17 00:02:50;;;;;;;;;;;;;;;12.71;68.76;102238.84;5031025;28;19920;-44
2023/10/17 00:05:15;;;;;;;6.72;3.20;;;;;;;12.62;69.02;102235.09;5031153;28;19913;-46
2023/10/17 00:07:45;;;;;;;6.78;3.60;;;;;;;12.62;68.85;102232.50;5030616;28;20044;-46
2023/10/17 00:10:17;;;;;;;8.05;3.63;;;;;;;12.67;68.65;102225.66;5030030;28;20033;-46
2023/10/17 00:12:45;;;;;;;7.28;3.53;;;;;;;12.45;69.08;102217.22;5030238;28;20040;-48
2023/10/17 00:15:29;;;;;;;6.95;3.50;;;;;;;12.49;69.07;102216.47;5029857;28;20116;-45
2023/10/17 00:18:11;;;;;;;8.63;3.80;;;;;;;12.63;68.60;102222.03;5030657;28;20087;-46
2023/10/17 00:20:37;;;;;;;8.02;3.50;;;;;;;12.66;68.34;102216.03;5030180;28;20045;-45
2023/10/17 00:23:06;;;;;;;7.15;3.58;;;;;;;12.69;68.30;102216.09;5029586;28;20038;-47
2023/10/17 00:25:32;;;;;;;8.57;3.70;;;;;;;12.58;68.39;102221.03;5029760;28;20044;-47
2023/10/17 00:27:58;;;;;;;7.45;3.47;;;;;;;12.63;68.22;102218.53;5030046;28;20037;-44
2023/10/17 00:30:29;;;;;;;6.80;3.38;;;;;;;12.66;68.04;102214.28;5030372;28;20044;-48
2023/10/17 00:32:54;;;;;;;7.75;3.40;;;;;;;12.64;67.92;102208.13;5029719;28;20041;-50
2023/10/17 00:35:19;;;;;;;6.75;3.33;;;;;;;12.60;68.36;102212.41;5029471;28;20029;-46
2023/10/17 00:37:53;;;;;;;10.25;3.80;;;;;;;12.62;68.44;102204.59;5029866;28;20040;-47
2023/10/17 00:43:05;;;;;;;6.78;3.28;;;;;;;12.57;68.41;102204.47;5029273;28;20099;-49
2023/10/17 00:45:34;;;;;;;7.47;3.28;;;;;;;12.51;68.38;102198.19;5029655;28;20037;-52
2023/10/17 00:48:02;;;;;;;7.57;3.50;;;;;;;12.50;68.75;102204.28;5029474;28;20045;-48
2023/10/17 00:50:28;;;;;;;7.55;3.38;;;;;;;12.60;68.13;102198.44;5029556;28;20029;-49
2023/10/17 00:52:56;;;;;;;7.70;3.25;;;;;;;12.54;68.33;102199.16;5029420;28;20445;-45
2023/10/17 00:55:24;;;;;;;9.05;3.58;;;;;;;12.58;68.30;102195.78;5029109;28;20098;-50
2023/10/17 00:57:52;;;;;;;7.75;3.70;;;;;;;12.57;68.11;102196.59;5029496;28;20037;-48
2023/10/17 01:00:37;;;;;;;6.68;3.15;;;;;;;12.67;67.80;102194.25;5029369;28;20079;-46
2023/10/17 01:03:11;;;;;;;5.68;3.47;;;;;;;12.66;67.89;102193.34;5026855;28;20083;-48
2023/10/17 01:05:50;;;;;;;9.77;3.17;;;;;;;12.63;68.14;102189.75;5029693;28;20492;-49
2023/10/17 01:08:15;;;;;;;9.85;3.30;;;;;;;12.66;68.02;102189.84;5029614;28;20036;-46
2023/10/17 01:10:41;;;;;;;8.48;3.40;;;;;;;12.63;67.99;102182.81;5030974;28;20025;-52
2023/10/17 01:13:06;;;;;;;6.40;3.40;;;;;;;12.64;68.15;102181.06;5032372;28;20048;-47
2023/10/17 01:15:32;;;;;;;6.97;3.30;;;;;;;12.66;67.96;102180.28;5030032;28;20096;-46
2023/10/17 01:18:04;;;;;;;7.40;3.53;;;;;;;12.72;67.99;102184.78;5029354;28;20120;-46
2023/10/17 01:20:29;;;;;;;7.00;3.58;;;;;;;12.65;68.02;102169.75;5029622;28;20029;-46
2023/10/17 01:23:00;;;;;;;5.57;3.28;;;;;;;12.62;68.13;102170.59;5029132;28;20500;-46
2023/10/17 01:25:27;;;;;;;7.22;3.35;;;;;;;12.66;67.77;102172.44;5028943;28;20033;-45
2023/10/17 01:27:54;;;;;;;8.95;3.33;;;;;;;12.67;67.71;102170.69;5028100;28;20112;-47
2023/10/17 01:30:21;;;;;;;7.50;3.13;;;;;;;12.68;67.41;102162.91;5029007;28;20034;-45
2023/10/17 01:32:48;;;;;;;6.80;3.45;;;;;;;12.69;67.16;102167.25;5029242;28;20033;-46
2023/10/17 01:35:13;;;;;;;6.55;3.15;;;;;;;12.49;67.52;102155.41;5028804;28;20083;-46
2023/10/17 01:37:40;;;;;;;4.97;3.00;;;;;;;12.63;67.31;102159.25;5030923;28;20033;-47
2023/10/17 01:40:09;;;;;;;6.78;3.08;;;;;;;12.63;67.31;102159.25;5032719;28;20443;-49
2023/10/17 01:42:35;;;;;;;6.03;3.10;;;;;;;12.61;67.42;102163.59;5033155;28;20147;-48
2023/10/17 01:45:00;;;;;;;9.82;3.40;;;;;;;12.47;67.63;102160.59;5032869;28;20456;-46
2023/10/17 01:47:26;;;;;;;8.23;3.40;;;;;;;12.65;67.45;102159.31;5034724;28;20125;-47
2023/10/17 01:49:51;;;;;;;7.00;3.00;;;;;;;12.55;67.65;102148.63;5033528;28;20036;-46
2023/10/17 01:52:17;;;;;;;7.28;3.45;;;;;;;12.46;67.64;102152.72;5032611;28;20049;-46
2023/10/17 01:54:47;;;;;;;6.78;3.00;;;;;;;12.63;67.27;102146.16;5033132;28;20037;-46
2023/10/17 01:57:12;;;;;;;7.43;3.58;;;;;;;12.58;67.25;102150.41;5032717;28;20037;-46
2023/10/17 01:59:38;;;;;;;6.82;3.40;;;;;;;12.60;66.71;102147.00;5033199;28;20029;-44
2023/10/17 02:02:04;;;;;;;8.15;3.47;;;;;;;12.40;67.13;102142.09;5036067;28;20060;-47
2023/10/17 02:04:34;;;;;;;5.65;3.20;;;;;;;12.56;66.73;102144.28;5040448;28;20047;-49
2023/10/17 02:07:00;;;;;;;5.15;3.25;;;;;;;12.58;66.45;102139.94;5032617;28;20045;-46
2023/10/17 02:11:55;;;;;;;6.18;3.05;;;;;;;12.54;66.65;102128.53;5032938;28;20121;-45
2023/10/17 02:14:22;;;;;;;7.32;3.15;;;;;;;12.47;66.51;102134.44;5031970;28;20124;-50
2023/10/17 02:16:48;;;;;;;6.85;3.10;;;;;;;12.49;66.73;102138.00;5032543;28;20059;-49
2023/10/17 02:19:14;;;;;;;6.35;3.25;;;;;;;12.39;66.98;102138.59;5031899;28;20124;-46
2023/10/17 02:21:40;;;;;;;6.90;3.13;;;;;;;12.51;66.75;102140.63;5032570;28;20120;-46
2023/10/17 02:24:08;;;;;;;8.30;3.08;;;;;;;12.26;67.02;102136.50;5031729;28;20064;-48
2023/10/17 02:26:43;;;;;;;10.20;2.83;;;;;;;12.43;66.92;102136.94;5032308;28;20044;-45
2023/10/17 02:29:11;;;;;;;5.50;2.92;;;;;;;12.53;66.38;102138.94;5031998;28;20030;-45
2023/10/17 02:31:37;;;;;;;8.77;3.25;;;;;;;12.46;66.37;102134.41;5032359;28;20112;-46
2023/10/17 02:34:03;;;;;;;8.30;3.00;;;;;;;12.55;66.24;102134.66;5031650;28;20037;-47
2023/10/17 02:36:28;;;;;;;5.90;2.80;;;;;;;12.51;66.38;102135.41;5032328;28;20182;-45
2023/10/17 02:38:54;;;;;;;6.53;2.97;;;;;;;12.51;66.33;102123.22;5032225;28;20518;-50
2023/10/17 02:41:19;;;;;;;4.95;2.60;;;;;;;12.60;66.10;102123.44;5031727;28;20037;-47
2023/10/17 02:43:45;;;;;;;10.20;2.90;;;;;;;12.48;65.93;102131.00;5031949;28;20025;-48
2023/10/17 02:46:12;;;;;;;6.57;2.70;;;;;;;12.53;66.17;102132.00;5033531;28;20116;-48
2023/10/17 02:48:38;;;;;;;7.50;2.55;;;;;;;12.56;65.67;102139.03;5033400;28;20561;-46
2023/10/17 02:51:31;;;;;;;9.68;2.70;;;;;;;12.54;65.81;102140.72;5032772;28;20041;-45
2023/10/17 02:53:58;;;;;;;6.25;2.80;;;;;;;12.50;65.85;102138.88;5035270;28;20507;-49
2023/10/17 02:56:24;;;;;;;6.32;2.63;;;;;;;12.38;66.05;102142.03;5034204;28;20033;-48
2023/10/17 02:59:12;;;;;;;5.72;3.03;;;;;;;12.40;65.98;102139.47;5034343;28;20041;-45
2023/10/17 03:01:37;;;;;;;6.03;2.95;;;;;;;12.42;65.90;102130.84;5035800;28;20039;-46
2023/10/17 03:04:09;;;;;;;7.63;3.20;;;;;;;12.31;65.94;102132.28;5032862;28;20040;-49
2023/10/17 03:06:37;;;;;;;7.88;2.90;;;;;;;12.46;65.83;102127.44;5031971;28;20503;-46
2023/10/17 03:09:15;;;;;;;5.78;2.60;;;;;;;12.45;65.78;102135.25;5031575;28;20704;-46
2023/10/17 03:12:06;;;;;;;7.00;2.72;;;;;;;12.18;66.38;102141.53;5031815;28;20041;-47
2023/10/17 03:15:16;;;;;;;6.97;2.70;;;;;;;12.37;66.05;102149.88;5031071;28;20033;-48
2023/10/17 03:17:26;;;;;;;9.95;2.92;;;;;;;12.37;66.15;102145.53;5031230;28;20029;-46
2023/10/17 03:19:52;;;;;;;5.50;2.85;;;;;;;12.35;66.15;102139.34;5031085;28;20034;-48
2023/10/17 03:24:47;;;;;;;5.10;2.60;;;;;;;12.29;66.36;102146.16;5032317;28;20025;-47
2023/10/17 03:27:33;;;;;;;5.13;2.83;;;;;;;12.36;65.93;102143.75;5031140;28;20045;-46
2023/10/17 03:30:10;;;;;;;6.20;2.90;;;;;;;12.35;65.86;102147.22;5030921;28;20045;-45
2023/10/17 03:32:44;;;;;;;4.95;2.90;;;;;;;12.28;65.93;102141.78;5031275;28;20079;-46
2023/10/17 03:35:20;;;;;;;5.22;2.90;;;;;;;12.36;65.80;102138.53;5028922;28;20414;-46
2023/10/17 03:37:45;;;;;;;7.32;3.20;;;;;;;12.41;65.77;102139.53;5031151;28;20100;-49
2023/10/17 03:40:19;;;;;;;7.47;3.00;;;;;;;12.37;65.86;102140.28;5029015;28;20449;-49
2023/10/17 03:42:46;;;;;;;7.68;3.13;;;;;;;12.38;66.00;102138.56;5030885;28;20029;-46
2023/10/17 03:45:17;;;;;;;5.15;2.88;;;;;;;12.35;66.02;102147.22;5030229;28;20060;-49
2023/10/17 03:47:57;;;;;;;5.68;2.80;;;;;;;12.34;66.25;102148.03;5029384;28;20513;-49
2023/10/17 03:50:41;;;;;;;8.25;3.35;;;;;;;12.30;66.52;102154.06;5030496;28;20033;-50
2023/10/17 03:53:15;;;;;;;5.85;3.30;;;;;;;12.34;66.35;102160.22;5029890;28;20391;-46
2023/10/17 03:55:50;;;;;;;4.78;2.67;;;;;;;12.28;66.39;102157.44;5029654;28;20109;-48
2023/10/17 04:00:48;;;;;;;8.65;3.40;;;;;;;12.28;66.35;102162.69;5030618;28;20033;-49
2023/10/17 04:03:23;;;;;;;5.78;2.80;;;;;;;12.22;66.73;102160.78;5029773;28;20496;-51
2023/10/17 04:05:51;;;;;;;5.80;2.97;;;;;;;12.22;67.23;102170.38;5030477;28;20438;-48
2023/10/17 04:08:26;;;;;;;7.82;3.40;;;;;;;12.21;67.03;102161.63;5030000;28;20124;-47
2023/10/17 04:11:08;;;;;;;8.00;3.15;;;;;;;12.20;67.58;102162.47;5030999;28;20080;-49
2023/10/17 04:13:35;;;;;;;6.90;3.00;;;;;;;12.29;66.97;102157.50;5031188;28;20526;-47
2023/10/17 04:16:14;;;;;;;4.93;2.80;;;;;;;12.16;67.56;102151.06;5030953;28;20040;-47
2023/10/17 04:18:40;;;;;;;6.40;2.95;;;;;;;12.25;66.99;102154.78;5035145;28;20039;-44
2023/10/17 04:21:26;;;;;;;5.57;2.88;;;;;;;12.20;67.14;102157.25;5040023;28;20053;-47
2023/10/17 04:23:52;;;;;;;5.10;2.85;;;;;;;12.22;67.37;102158.19;5031947;28;20034;-48
2023/10/17 04:26:18;;;;;;;5.05;2.72;;;;;;;12.33;67.40;102148.88;5029981;28;20037;-46
2023/10/17 04:28:49;;;;;;;4.88;2.70;;;;;;;12.35;67.21;102152.44;5030503;28;20120;-47
2023/10/17 04:31:30;;;;;;;5.40;2.80;;;;;;;12.38;66.86;102149.88;5029789;28;20431;-46
2023/10/17 04:33:58;;;;;;;5.93;2.70;;;;;;;12.24;67.59;102150.38;5028810;28;20061;-46
2023/10/17 04:36:25;;;;;;;7.15;3.00;;;;;;;12.34;67.35;102149.78;5030160;28;20095;-46
2023/10/17 04:39:35;;;;;;;6.20;2.67;;;;;;;12.36;67.01;102141.13;5030703;28;20399;-49
2023/10/17 04:44:16;;;;;;;4.20;2.30;;;;;;;12.33;67.20;102146.28;5030801;28;20034;-48
2023/10/17 04:46:51;;;;;;;4.88;2.90;;;;;;;12.20;67.64;102144.16;5030706;28;20061;-46
2023/10/17 04:49:20;;;;;;;8.07;2.80;;;;;;;12.04;67.59;102145.50;5029860;28;20128;-46
2023/10/17 04:52:05;;;;;;;5.85;3.03;;;;;;;12.28;67.19;102153.13;5030313;28;20434;-49
2023/10/17 04:54:39;;;;;;;5.90;3.05;;;;;;;12.25;67.13;102155.66;5029732;28;20041;-45
2023/10/17 04:57:06;;;;;;;5.82;2.88;;;;;;;12.31;66.75;102150.59;5029545;28;20067;-46
2023/10/17 06:18:42;;;;;;;8.30;3.45;;;;;;;11.30;69.04;102107.63;5029043;28;20534;-47
2023/10/17 06:21:07;;;;;;;8.18;3.33;;;;;;;11.34;69.16;102111.22;5028438;28;20033;-50
2023/10/17 06:26:46;;;;;;;9.38;4.40;;;;;;;11.10;70.13;102113.94;5033689;28;20080;-46
2023/10/17 06:34:20;;;;;;;6.28;3.67;;;;;;;11.18;69.91;102122.03;5031695;28;20049;-46
2023/10/17 06:36:50;;;;;;;5.82;3.47;;;;;;;10.95;70.42;102131.75;5032342;28;20036;-45
2023/10/17 06:39:17;;;;;;;5.88;3.42;;;;;;;11.20;69.76;102136.00;5032129;28;20041;-47
2023/10/17 06:41:44;;;;;;;8.85;3.60;;;;;;;11.27;69.33;102131.03;5032190;28;20040;-48
2023/10/17 06:44:11;;;;;;;7.80;3.50;;;;;;;11.14;69.72;102131.50;5031736;28;20037;-47
2023/10/17 06:46:40;;;;;;;6.10;3.33;;;;;;;11.22;69.59;102129.97;5031876;28;20392;-48
2023/10/17 06:49:09;;;;;;;7.45;3.47;;;;;;;11.21;69.61;102138.69;5031597;28;20154;-46
2023/10/17 06:51:39;;;;;;;7.25;3.40;;;;;;;10.90;70.98;102136.81;5031961;28;20025;-48
2023/10/17 06:54:13;;;;;;;6.70;3.60;;;;;;;11.03;70.16;102138.09;5031045;28;20041;-45
2023/10/17 06:56:44;;;;;;;8.75;3.60;;;;;;;11.17;69.91;102135.91;5031923;28;20036;-44
2023/10/17 06:59:24;;;;;;;7.63;3.60;;;;;;;11.27;70.06;102141.47;5031122;28;20112;-46
2023/10/17 07:02:10;;;;;;;6.35;3.47;;;;;;;11.23;69.49;102129.16;5031636;28;20053;-48
2023/10/17 07:04:37;;;;;;;8.23;4.65;;;;;;;11.33;69.65;102130.34;5031351;28;20110;-49
2023/10/17 07:07:03;;;;;;;6.82;3.50;;;;;;;11.36;69.93;102127.78;5031808;28;20049;-49
2023/10/17 07:09:30;;;;;;;7.43;3.60;;;;;;;11.41;69.96;102123.59;5031697;28;20053;-50
2023/10/17 07:12:02;;;;;;;10.82;3.65;;;;;;;11.51;69.61;102132.59;5031666;28;20053;-48
2023/10/17 07:14:27;;;;;;;7.45;3.53;;;;;;;11.59;69.75;102129.34;5031260;28;20037;-48
2023/10/17 07:17:00;;;;;;;5.70;3.22;;;;;;;11.66;69.28;102125.19;5031528;28;20029;-46
2023/10/17 07:24:26;;;;;;;5.75;3.30;;;;;;;11.82;68.40;102123.97;5030750;28;20521;-47
2023/10/17 07:26:52;;;;;;;8.15;3.40;;;;;;;11.68;68.66;102121.81;5031159;28;20048;-47
2023/10/17 07:29:25;;;;;;;7.07;3.30;;;;;;;11.92;67.83;102120.75;5030761;28;20514;-50
2023/10/17 07:31:54;;;;;;;9.00;3.50;;;;;;;11.89;68.06;102128.53;5031128;28;20053;-49
2023/10/17 07:34:24;;;;;;;8.52;3.47;;;;;;;11.63;67.87;102126.00;5030123;28;20057;-49
2023/10/17 07:36:58;;;;;;;6.00;3.38;;;;;;;11.89;67.68;102128.53;5030854;28;20090;-46
2023/10/17 07:39:24;;;;;;;7.22;3.40;;;;;;;11.98;67.11;102127.03;5030950;28;20033;-47
2023/10/17 07:41:53;;;;;;;5.95;3.38;;;;;;;12.03;66.76;102120.19;5030986;28;20061;-52
2023/10/17 07:44:22;;;;;;;6.20;3.58;;;;;;;12.08;66.46;102120.31;5030535;28;20399;-46
2023/10/17 07:46:50;;;;;;;6.57;3.13;;;;;;;12.25;66.16;102113.81;5030878;28;20060;-50
2023/10/17 07:49:25;;;;;;;7.78;3.42;;;;;;;12.11;66.71;102117.78;5030351;28;20041;-51
2023/10/17 07:51:51;;;;;;;8.25;3.58;;;;;;;12.08;66.69;102120.31;5031331;28;20515;-47
2023/10/17 07:54:16;;;;;;;8.18;3.67;;;;;;;12.28;65.12;102118.22;5030305;28;20041;-44
2023/10/17 07:56:50;;;;;;;7.60;3.60;;;;;;;12.55;65.22;102111.09;5031361;28;20407;-47
2023/10/17 07:59:16;;;;;;;8.43;4.50;;;;;;;12.53;64.74;102120.63;5030359;28;20038;-44
2023/10/17 08:01:45;;;;;;;8.55;4.28;;;;;;;12.67;64.56;102110.53;5030478;28;20033;-46
2023/10/17 08:04:17;;;;;;;9.45;4.47;;;;;;;12.82;64.08;102119.63;5030024;28;20029;-46
2023/10/17 08:06:44;;;;;;;10.82;5.05;;;;;;;12.75;64.40;102122.94;5030862;28;20030;-49
2023/10/17 08:09:18;;;;;;;8.35;4.88;;;;;;;12.63;64.89;102116.50;5030027;28;20491;-43
2023/10/17 08:11:44;;;;;;;10.32;5.00;;;;;;;13.03;63.96;102116.63;5030631;28;20060;-46
2023/10/17 08:14:10;;;;;;;10.75;5.20;;;;;;;13.26;63.31;102118.06;5030738;28;20049;-49
2023/10/17 08:16:40;;;;;;;9.98;4.93;;;;;;;13.52;63.24;102115.13;5031111;28;20033;-46
2023/10/17 08:19:15;;;;;;;10.20;5.50;;;;;;;13.16;64.09;102117.81;5030445;28;20033;-49
2023/10/17 08:24:33;;;;;;;10.70;5.28;;;;;;;13.58;63.18;102116.13;5029843;28;20064;-49
2023/10/17 08:29:45;;;;;;;13.40;6.22;;;;;;;13.36;63.70;102119.13;5031573;28;20123;-51
2023/10/17 08:34:47;;;;;;;11.15;6.63;;;;;;;13.84;62.77;102126.28;5030318;28;20065;-48
2023/10/17 08:37:19;;;;;;;11.73;6.65;;;;;;;14.11;61.50;102129.41;5029923;28;20029;-50
2023/10/17 08:42:13;;;;;;;14.38;6.90;;;;;;;14.25;61.59;102132.28;5029537;28;20033;-49
2023/10/17 08:44:46;;;;;;;14.80;7.60;;;;;;;14.01;61.63;102131.00;5029929;28;20484;-47
2023/10/17 08:47:18;;;;;;;14.75;7.78;;;;;;;13.99;61.88;102131.78;5029039;28;20041;-49
2023/10/17 08:49:47;;;;;;;12.05;7.40;;;;;;;13.89;61.60;102140.34;5030188;28;20036;-46
2023/10/17 08:52:22;;;;;;;11.10;7.22;;;;;;;14.06;61.00;102138.94;5029055;28;20037;-47
2023/10/17 08:54:48;;;;;;;12.77;7.55;;;;;;;14.16;60.61;102133.88;5029514;28;20042;-47
2023/10/17 08:57:13;;;;;;;16.00;8.82;;;;;;;14.04;60.84;102132.75;5029130;28;20108;-48
2023/10/17 09:02:30;;;;;;;18.00;9.15;;;;;;;14.37;60.64;102140.38;5028834;28;20033;-49
2023/10/17 09:05:18;;;;;;;17.38;9.18;;;;;;;14.37;60.03;102133.44;5029578;28;20045;-47
2023/10/17 09:07:48;;;;;;;17.20;8.85;;;;;;;14.15;61.13;102136.47;5029687;28;20543;-47
2023/10/17 09:10:38;;;;;;;16.95;9.20;;;;;;;14.15;60.43;102139.97;5028982;28;20160;-48
2023/10/17 09:15:48;;;;;;;14.35;8.75;;;;;;;14.38;60.10;102135.22;5029625;28;20065;-47
2023/10/17 09:18:14;;;;;;;16.30;8.90;;;;;;;14.71;59.47;102129.63;5029005;28;20037;-50
2023/10/17 09:20:39;;;;;;;16.40;9.32;;;;;;;14.77;59.19;102120.97;5029569;28;20172;-49
2023/10/17 09:23:30;;;;;;;16.15;9.10;;;;;;;14.80;59.23;102121.94;5029004;28;20105;-42
2023/10/17 09:26:19;;;;;;;16.50;8.23;;;;;;;14.59;59.59;102121.56;5029437;28;20041;-49
2023/10/17 09:28:46;;;;;;;16.17;8.35;;;;;;;14.35;58.87;102127.22;5027844;28;20038;-49
2023/10/17 09:31:18;;;;;;;16.15;8.00;;;;;;;14.83;58.18;102124.59;5029321;28;20029;-48
2023/10/17 09:33:48;;;;;;;15.32;8.20;;;;;;;14.04;59.94;102135.38;5029322;28;20083;-46
2023/10/17 09:36:18;;;;;;;16.20;8.60;;;;;;;14.57;58.90;102126.81;5029685;28;20029;-46
2023/10/17 09:38:44;;;;;;;15.82;8.60;;;;;;;14.68;58.44;102126.09;5030237;28;20116;-46
2023/10/17 09:41:11;;;;;;;14.65;8.05;;;;;;;14.71;58.63;102119.13;5029336;28;20038;-43
2023/10/17 09:43:37;;;;;;;15.20;8.07;;;;;;;14.86;58.43;102121.13;5028082;28;20035;-46
2023/10/17 09:46:09;;;;;;;14.27;7.90;;;;;;;14.77;58.37;102113.97;5029090;28;20069;-46
2023/10/17 09:48:37;;;;;;;13.45;7.40;;;;;;;14.45;58.36;102117.84;5029741;28;20045;-46
2023/10/17 09:51:04;;;;;;;14.38;7.57;;;;;;;14.88;57.17;102107.16;5029713;28;20034;-48
2023/10/17 09:53:34;;;;;;;11.77;6.82;;;;;;;14.81;56.58;102107.06;5029526;28;20041;-47
2023/10/17 09:56:06;;;;;;;10.38;6.50;;;;;;;14.52;57.30;102104.81;5028375;28;20045;-45
2023/10/17 09:58:37;;;;;;;13.48;6.20;;;;;;;14.42;57.70;102112.53;5029390;28;20040;-48
2023/10/17 10:01:13;;;;;;;13.02;6.80;;;;;;;14.64;56.54;102106.75;5032522;28;20086;-48
2023/10/17 10:03:40;;;;;;;11.48;6.50;;;;;;;14.79;57.33;102101.78;5032983;28;20025;-48
2023/10/17 10:06:25;;;;;;;10.40;6.30;;;;;;;14.89;55.71;102093.16;5032974;28;20029;-47
2023/10/17 10:08:56;;;;;;;12.15;6.45;;;;;;;14.79;56.16;102093.00;5033571;28;20447;-45
2023/10/17 10:11:53;;;;;;;12.70;5.85;;;;;;;14.60;55.78;102099.72;5032907;28;20527;-47
2023/10/17 10:14:21;;;;;;;10.50;6.20;;;;;;;14.61;55.69;102085.72;5032237;28;20100;-47
2023/10/17 10:16:49;;;;;;;10.07;5.50;;;;;;;15.14;55.46;102094.41;5032649;28;20095;-48
2023/10/17 10:19:16;;;;;;;15.38;5.93;;;;;;;14.99;55.24;102083.69;5032328;28;20042;-50
2023/10/17 10:21:59;;;;;;;12.43;5.68;;;;;;;15.08;55.34;102088.19;5032695;28;20044;-50
2023/10/17 10:24:26;;;;;;;10.93;5.25;;;;;;;15.27;54.98;102085.84;5032142;28;20451;-50
2023/10/17 10:27:10;;;;;;;11.57;5.47;;;;;;;15.05;55.21;102094.28;5032564;28;20041;-44
2023/10/17 10:29:35;;;;;;;11.35;5.82;;;;;;;15.30;54.61;102100.78;5032593;28;20585;-45
2023/10/17 10:32:05;;;;;;;9.02;5.55;;;;;;;15.18;55.09;102097.97;5031994;28;20029;-47
2023/10/17 10:34:35;;;;;;;10.82;5.10;;;;;;;15.48;54.22;102101.03;5032453;28;20050;-47
2023/10/17 10:37:01;;;;;;;10.63;5.45;;;;;;;15.34;54.33;102097.31;5031871;28;20033;-49
2023/10/17 10:39:26;;;;;;;7.90;5.00;;;;;;;15.05;54.79;102088.16;5030244;28;20033;-47
2023/10/17 10:41:59;;;;;;;8.98;4.60;;;;;;;15.15;54.07;102087.41;5032026;28;20037;-50
2023/10/17 10:44:25;;;;;;;9.20;4.50;;;;;;;15.24;53.45;102071.78;5031698;28;20033;-46
2023/10/17 10:46:52;;;;;;;8.23;4.07;;;;;;;15.27;52.44;102061.31;5032139;28;20116;-47
2023/10/17 10:49:27;;;;;;;7.53;4.43;;;;;;;15.17;52.83;102062.94;5031771;28;20937;-49
2023/10/17 10:51:53;;;;;;;7.13;4.20;;;;;;;15.40;52.65;102055.34;5031979;28;20033;-47
2023/10/17 10:54:19;;;;;;;9.05;4.32;;;;;;;15.50;52.65;102053.69;5031952;28;20492;-46
2023/10/17 10:56:51;;;;;;;6.65;4.00;;;;;;;15.40;52.23;102055.34;5032257;28;20049;-46
2023/10/17 10:59:21;;;;;;;6.38;3.78;;;;;;;15.49;51.50;102055.44;5031885;28;20029;-46
2023/10/17 11:01:49;;;;;;;8.80;4.38;;;;;;;15.22;52.20;102052.50;5032115;28;20032;-46
2023/10/17 11:04:15;;;;;;;7.90;4.13;;;;;;;15.91;51.38;102052.47;5030243;28;20034;-46
2023/10/17 11:06:41;;;;;;;8.73;4.00;;;;;;;15.73;51.75;102057.53;5031919;28;20377;-47
2023/10/17 11:09:09;;;;;;;7.20;3.85;;;;;;;16.16;51.79;102053.59;5030823;28;20041;-46
2023/10/17 11:11:50;;;;;;;7.95;3.90;;;;;;;16.09;51.08;102049.13;5030960;28;20125;-49
2023/10/17 11:14:19;;;;;;;7.03;3.85;;;;;;;15.96;51.01;102049.88;5030945;28;20037;-46
2023/10/17 11:16:50;;;;;;;6.82;3.95;;;;;;;15.80;50.71;102047.09;5031873;28;20041;-47
2023/10/17 11:19:22;;;;;;;7.63;3.65;;;;;;;15.57;50.52;102039.81;5033811;28;20095;-47
2023/10/17 11:21:52;;;;;;;6.65;3.90;;;;;;;15.73;50.46;102039.13;5031963;28;20053;-46
2023/10/17 11:24:20;;;;;;;7.70;3.90;;;;;;;15.99;50.02;102020.97;5031408;28;20430;-46
2023/10/17 11:26:46;;;;;;;7.63;3.78;;;;;;;15.99;50.61;102015.69;5031582;28;20533;-46
2023/10/17 11:29:12;;;;;;;6.28;3.15;;;;;;;16.10;50.23;102017.56;5030960;28;20037;-49
2023/10/17 11:31:41;;;;;;;6.43;3.42;;;;;;;15.85;50.07;102005.09;5031384;28;20034;-45
2023/10/17 11:34:16;;;;;;;7.85;3.78;;;;;;;15.96;50.03;102010.44;5030407;28;20049;-49
2023/10/17 11:36:54;;;;;;;7.75;3.45;;;;;;;15.50;49.04;102006.41;5031269;28;20056;-49
2023/10/17 11:39:20;;;;;;;7.68;3.72;;;;;;;16.14;48.70;102013.22;5030858;28;20467;-47
2023/10/17 11:41:53;;;;;;;7.78;3.92;;;;;;;16.31;49.11;102008.09;5031001;28;20038;-47
2023/10/17 11:44:23;;;;;;;6.13;3.83;;;;;;;16.15;49.42;102010.63;5030664;28;20056;-46
2023/10/17 11:47:07;;;;;;;8.30;3.75;;;;;;;16.33;49.53;102009.88;5031748;28;20034;-43
2023/10/17 11:49:35;;;;;;;9.05;3.67;;;;;;;16.26;48.92;101997.53;5033307;28;20033;-43
2023/10/17 11:52:10;;;;;;;9.10;3.45;;;;;;;16.40;49.10;101995.91;5030231;28;20041;-50
2023/10/17 11:54:54;;;;;;;8.20;3.80;;;;;;;15.92;49.09;101995.50;5030658;28;20661;-47
2023/10/17 11:57:23;;;;;;;5.55;3.60;;;;;;;16.34;49.39;101994.97;5030359;28;20044;-46
2023/10/17 12:00:06;;;;;;;5.35;3.22;;;;;;;16.42;49.06;101995.91;5031527;28;20037;-48
2023/10/17 12:02:31;;;;;;;7.97;3.50;;;;;;;16.04;48.52;101978.06;5031284;28;20655;-49
2023/10/17 12:04:59;;;;;;;12.75;3.65;;;;;;;16.46;48.96;101977.53;5031187;28;20066;-48
2023/10/17 12:07:24;;;;;;;5.63;3.65;;;;;;;16.15;48.66;101976.41;5030423;28;20029;-49
2023/10/17 12:09:53;;;;;;;6.97;3.90;;;;;;;16.54;49.26;101962.63;5030605;28;20099;-47
2023/10/17 12:12:19;;;;;;;9.70;4.35;;;;;;;16.25;48.89;101966.81;5029897;28;20080;-51
2023/10/17 12:14:44;;;;;;;7.95;4.30;;;;;;;16.39;48.67;101959.91;5030247;28;20045;-49
2023/10/17 12:17:13;;;;;;;10.57;4.18;;;;;;;15.89;49.16;101954.25;5029642;28;20583;-45
2023/10/17 12:19:40;;;;;;;7.68;3.50;;;;;;;16.32;48.79;101958.13;5030344;28;20569;-48
2023/10/17 12:22:05;;;;;;;7.88;3.40;;;;;;;16.49;47.48;101945.06;5028693;28;20120;-51
2023/10/17 12:24:37;;;;;;;6.95;3.63;;;;;;;16.60;47.97;101943.41;5030630;28;20116;-44
2023/10/17 12:27:06;;;;;;;10.23;4.15;;;;;;;16.51;48.56;101938.94;5030094;28;20040;-46
2023/10/17 12:29:32;;;;;;;8.55;4.13;;;;;;;16.42;49.40;101948.50;5030347;28;20033;-45
2023/10/17 12:31:59;;;;;;;7.65;4.50;;;;;;;16.30;49.28;101928.25;5033465;28;20518;-48
2023/10/17 12:34:25;;;;;;;9.45;3.95;;;;;;;16.52;49.57;101924.91;5036896;28;20124;-50
2023/10/17 12:36:50;;;;;;;8.23;4.30;;;;;;;16.38;48.74;101923.06;5037990;28;20399;-50
2023/10/17 12:39:19;;;;;;;6.65;3.90;;;;;;;16.56;48.35;101920.53;5031898;28;20053;-44
2023/10/17 12:41:46;;;;;;;6.57;3.75;;;;;;;16.71;48.16;101927.69;5030799;28;20063;-48
2023/10/17 12:44:11;;;;;;;13.13;4.63;;;;;;;16.54;48.12;101928.41;5030088;28;20102;-46
2023/10/17 12:46:37;;;;;;;7.32;4.13;;;;;;;16.62;48.02;101929.38;5030638;28;20391;-46
2023/10/17 12:49:02;;;;;;;6.60;4.22;;;;;;;16.10;48.31;101914.97;5029845;28;20038;-48
2023/10/17 12:51:27;;;;;;;6.28;3.90;;;;;;;16.74;47.49;101910.13;5030164;28;20033;-45
2023/10/17 12:53:54;;;;;;;7.53;3.97;;;;;;;16.62;48.50;101910.94;5029569;28;20029;-45
2023/10/17 12:56:23;;;;;;;8.15;4.00;;;;;;;16.18;48.57;101900.13;5029454;28;20095;-47
2023/10/17 12:58:48;;;;;;;6.65;3.55;;;;;;;16.41;47.17;101900.25;5029994;28;20033;-46
2023/10/17 13:01:14;;;;;;;6.15;3.25;;;;;;;16.10;46.36;101898.34;5029207;28;20045;-48
2023/10/17 13:03:39;;;;;;;5.75;3.10;;;;;;;16.49;45.70;101895.94;5029373;28;20033;-46
2023/10/17 13:06:05;;;;;;;9.82;3.20;;;;;;;16.52;46.46;101889.81;5028984;28;20042;-47
2023/10/17 13:08:31;;;;;;;6.65;3.75;;;;;;;16.64;46.49;101879.38;5029481;28;20060;-48
2023/10/17 13:10:57;;;;;;;5.57;3.63;;;;;;;17.01;46.95;101875.13;5029603;28;20040;-48
2023/10/17 13:13:23;;;;;;;7.07;3.95;;;;;;;16.81;47.51;101885.59;5028806;28;20063;-45
2023/10/17 13:15:49;;;;;;;5.60;3.83;;;;;;;16.78;47.45;101885.56;5029548;28;20583;-46
2023/10/17 13:18:16;;;;;;;6.72;3.85;;;;;;;16.51;48.65;101885.41;5028872;28;20041;-47
2023/10/17 13:20:48;;;;;;;10.50;3.70;;;;;;;16.91;47.91;101874.19;5029657;28;20036;-46
2023/10/17 13:23:17;;;;;;;6.65;3.75;;;;;;;17.16;47.89;101875.16;5028685;28;20068;-47
2023/10/17 13:25:43;;;;;;;6.65;3.92;;;;;;;17.09;47.66;101865.47;5029275;28;20033;-49
2023/10/17 13:28:12;;;;;;;6.65;3.63;;;;;;;16.40;47.68;101871.31;5028859;28;20069;-46
2023/10/17 13:30:37;;;;;;;7.28;3.50;;;;;;;16.77;47.08;101859.25;5029232;28;20508;-46
2023/10/17 13:33:03;;;;;;;6.07;3.30;;;;;;;17.04;46.99;101865.47;5029572;28;20064;-46
2023/10/17 13:35:30;;;;;;;6.25;3.22;;;;;;;17.03;45.92;101865.44;5033509;28;20534;-44
2023/10/17 13:37:56;;;;;;;6.38;2.60;;;;;;;16.84;44.88;101858.34;5033092;28;20080;-48
2023/10/17 13:40:23;;;;;;;7.07;2.97;;;;;;;16.62;44.63;101847.75;5032843;28;20040;-46